createdAt,value
2018-11-13T00:00:03.739Z,7.40
2018-11-13T00:05:00.522Z,7.30
2018-11-13T00:07:29.051Z,7.40
2018-11-13T00:09:57.610Z,7.60
2018-11-13T00:12:26.138Z,7.40
2018-11-13T00:14:54.678Z,7.30
2018-11-13T00:17:23.261Z,7.40
2018-11-13T00:19:51.818Z,7.30
2018-11-13T00:22:20.368Z,7.40
2018-11-13T00:24:48.896Z,7.10
2018-11-13T00:27:17.484Z,7.50
2018-11-13T00:29:46.016Z,7.20
2018-11-13T00:32:14.542Z,7.10
2018-11-13T00:34:43.071Z,6.90
2018-11-13T00:37:11.638Z,6.90
2018-11-13T00:39:40.214Z,7.00
2018-11-13T00:42:08.783Z,7.00
2018-11-13T00:44:37.342Z,6.90
2018-11-13T00:47:05.978Z,6.80
2018-11-13T00:49:34.529Z,6.70
2018-11-13T00:52:03.150Z,6.70
2018-11-13T00:54:31.686Z,6.60
2018-11-13T00:57:00.225Z,6.60
2018-11-13T00:59:28.838Z,6.30
2018-11-13T01:01:57.425Z,6.50
2018-11-13T01:04:25.940Z,6.50
2018-11-13T01:06:54.514Z,6.80
2018-11-13T01:09:23.090Z,6.80
2018-11-13T01:11:51.618Z,5.30
2018-11-13T01:14:20.162Z,6.60
2018-11-13T01:16:48.734Z,6.40
2018-11-13T01:19:17.280Z,6.50
2018-11-13T01:21:45.790Z,6.40
2018-11-13T01:24:14.320Z,6.50
2018-11-13T01:26:42.886Z,6.40
2018-11-13T01:29:11.444Z,6.60
2018-11-13T01:31:39.938Z,6.50
2018-11-13T01:34:08.426Z,6.40
2018-11-13T01:36:37.009Z,6.60
2018-11-13T01:39:07.690Z,6.60
2018-11-13T01:41:36.311Z,6.60
2018-11-13T01:44:04.966Z,6.50
2018-11-13T01:46:33.532Z,6.60
2018-11-13T01:49:02.060Z,6.60
2018-11-13T01:51:30.576Z,6.40
2018-11-13T01:53:59.125Z,6.60
2018-11-13T01:58:55.967Z,6.10
2018-11-13T02:01:24.492Z,6.50
2018-11-13T02:03:53.029Z,6.60
2018-11-13T02:06:21.547Z,6.60
2018-11-13T02:08:50.090Z,6.70
2018-11-13T02:11:18.615Z,6.70
2018-11-13T02:13:47.154Z,6.70
2018-11-13T02:16:15.688Z,6.60
2018-11-13T02:18:44.222Z,6.70
2018-11-13T02:21:12.783Z,6.50
2018-11-13T02:23:41.288Z,6.40
2018-11-13T02:26:09.866Z,6.40
2018-11-13T02:28:38.394Z,6.30
2018-11-13T02:31:07.015Z,6.30
2018-11-13T02:33:35.474Z,6.20
2018-11-13T02:36:04.059Z,6.10
2018-11-13T02:38:32.629Z,6.10
2018-11-13T02:41:01.216Z,6.00
2018-11-13T02:43:29.738Z,6.10
2018-11-13T02:45:58.298Z,6.30
2018-11-13T02:48:26.789Z,6.30
2018-11-13T02:50:55.356Z,6.30
2018-11-13T02:53:23.849Z,6.20
2018-11-13T02:55:52.447Z,6.20
2018-11-13T02:58:21.015Z,6.20
2018-11-13T03:00:49.565Z,6.20
2018-11-13T03:03:18.115Z,6.10
2018-11-13T03:05:46.626Z,6.00
2018-11-13T03:08:15.146Z,6.10
2018-11-13T03:10:43.723Z,6.10
2018-11-13T03:13:12.323Z,6.10
2018-11-13T03:15:40.861Z,6.20
2018-11-13T03:18:09.365Z,6.30
2018-11-13T03:20:37.873Z,6.30
2018-11-13T03:23:06.388Z,6.10
2018-11-13T03:25:34.902Z,6.10
2018-11-13T03:28:03.429Z,5.90
2018-11-13T03:30:31.955Z,6.00
2018-11-13T03:33:00.483Z,6.10
2018-11-13T03:35:29.033Z,6.10
2018-11-13T03:37:57.562Z,6.10
2018-11-13T03:40:26.105Z,6.30
2018-11-13T03:42:54.644Z,6.10
2018-11-13T03:45:23.219Z,6.00
2018-11-13T03:47:51.753Z,6.20
2018-11-13T03:50:21.419Z,6.20
2018-11-13T03:52:50.000Z,6.10
2018-11-13T03:55:19.138Z,6.20
2018-11-13T04:00:18.692Z,6.40
2018-11-13T04:02:47.276Z,6.10
2018-11-13T04:05:16.917Z,6.20
2018-11-13T04:07:48.701Z,6.20
2018-11-13T04:10:18.363Z,6.10
2018-11-13T04:12:46.925Z,6.10
2018-11-13T04:15:17.762Z,6.00
2018-11-13T04:17:46.352Z,6.20
2018-11-13T04:20:16.065Z,6.10
2018-11-13T04:22:44.817Z,5.70
2018-11-13T04:25:13.409Z,6.10
2018-11-13T04:27:41.977Z,6.10
2018-11-13T04:30:11.950Z,6.10
2018-11-13T04:32:41.030Z,6.00
2018-11-13T04:37:40.198Z,5.80
2018-11-13T04:40:12.016Z,5.80
2018-11-13T04:42:41.417Z,5.90
2018-11-13T04:45:12.441Z,5.90
2018-11-13T04:55:10.709Z,5.50
2018-11-13T04:57:40.089Z,5.60
2018-11-13T05:00:14.483Z,5.60
2018-11-13T05:02:43.734Z,5.40
2018-11-13T05:05:13.222Z,5.40
2018-11-13T05:07:42.405Z,5.30
2018-11-13T05:10:12.185Z,5.40
2018-11-13T05:12:41.850Z,5.30
2018-11-13T05:15:10.527Z,5.30
2018-11-13T05:17:39.908Z,5.90
2018-11-13T05:20:11.244Z,6.50
2018-11-13T05:22:39.849Z,5.10
2018-11-13T05:25:10.431Z,5.20
2018-11-13T05:27:39.184Z,5.10
2018-11-13T05:30:09.843Z,5.30
2018-11-13T05:32:38.665Z,5.30
2018-11-13T05:35:09.081Z,5.40
2018-11-13T05:37:37.759Z,5.40
2018-11-13T05:40:08.834Z,5.40
2018-11-13T05:42:37.519Z,5.20
2018-11-13T05:45:07.749Z,5.30
2018-11-13T05:47:36.418Z,5.00
2018-11-13T05:50:05.777Z,5.30
2018-11-13T05:52:34.325Z,5.20
2018-11-13T05:57:31.114Z,5.40
2018-11-13T05:59:59.965Z,5.30
2018-11-13T06:02:28.711Z,5.40
2018-11-13T06:04:57.245Z,5.50
2018-11-13T06:07:25.781Z,5.40
2018-11-13T06:09:54.245Z,5.50
2018-11-13T06:12:22.749Z,5.50
2018-11-13T06:14:51.655Z,5.60
2018-11-13T06:17:20.358Z,5.70
2018-11-13T06:19:48.885Z,5.50
2018-11-13T06:22:17.551Z,5.60
2018-11-13T06:24:46.070Z,5.50
2018-11-13T06:27:14.668Z,5.50
2018-11-13T06:29:43.230Z,5.40
2018-11-13T06:32:11.742Z,5.40
2018-11-13T06:34:40.490Z,5.50
2018-11-13T06:37:08.993Z,5.40
2018-11-13T06:39:38.357Z,5.40
2018-11-13T06:44:35.089Z,5.30
2018-11-13T06:47:03.542Z,5.60
2018-11-13T06:49:32.147Z,5.50
2018-11-13T06:52:00.670Z,5.40
2018-11-13T06:54:40.349Z,5.40
2018-11-13T06:57:08.855Z,5.60
2018-11-13T06:59:37.377Z,5.50
2018-11-13T07:02:06.666Z,5.50
2018-11-13T07:04:35.177Z,5.50
2018-11-13T07:07:03.735Z,5.50
2018-11-13T07:09:32.263Z,5.50
2018-11-13T07:12:00.778Z,5.50
2018-11-13T07:16:57.491Z,5.60
2018-11-13T07:19:26.029Z,5.50
2018-11-13T07:21:54.797Z,5.60
2018-11-13T07:24:23.285Z,5.70
2018-11-13T07:26:51.853Z,5.80
2018-11-13T07:29:20.331Z,5.60
2018-11-13T07:31:48.873Z,5.70
2018-11-13T07:34:17.393Z,5.70
2018-11-13T07:36:45.921Z,5.70
2018-11-13T07:39:14.429Z,5.70
2018-11-13T07:41:42.972Z,5.80
2018-11-13T07:44:11.507Z,5.80
2018-11-13T07:46:40.014Z,6.00
2018-11-13T07:49:08.543Z,6.00
2018-11-13T07:51:37.085Z,6.00
2018-11-13T07:54:05.759Z,5.90
2018-11-13T07:56:34.528Z,5.90
2018-11-13T07:59:03.124Z,5.90
2018-11-13T08:01:31.668Z,5.90
2018-11-13T08:04:00.187Z,5.90
2018-11-13T08:06:29.075Z,5.90
2018-11-13T08:08:57.532Z,5.80
2018-11-13T08:11:26.056Z,5.80
2018-11-13T08:13:54.806Z,5.90
2018-11-13T08:16:23.336Z,6.00
2018-11-13T08:18:51.960Z,6.30
2018-11-13T08:21:20.438Z,6.30
2018-11-13T08:23:49.274Z,6.30
2018-11-13T08:26:17.818Z,6.30
2018-11-13T08:28:46.391Z,6.30
2018-11-13T08:31:21.432Z,6.30
2018-11-13T08:33:50.303Z,6.40
2018-11-13T08:36:18.842Z,6.20
2018-11-13T08:38:47.421Z,6.30
2018-11-13T08:41:15.977Z,6.30
2018-11-13T08:43:44.556Z,6.20
2018-11-13T08:46:13.116Z,6.10
2018-11-13T08:48:41.619Z,6.10
2018-11-13T08:51:10.177Z,6.10
2018-11-13T08:53:38.726Z,6.20
2018-11-13T08:56:07.313Z,6.30
2018-11-13T08:58:35.969Z,6.20
2018-11-13T09:01:04.503Z,6.20
2018-11-13T09:03:33.063Z,6.50
2018-11-13T09:06:01.615Z,6.50
2018-11-13T09:08:30.156Z,6.60
2018-11-13T09:10:58.851Z,6.70
2018-11-13T09:13:27.397Z,7.20
2018-11-13T09:20:52.354Z,7.60
2018-11-13T09:23:20.871Z,7.70
2018-11-13T09:25:49.391Z,7.80
2018-11-13T09:28:17.916Z,7.90
2018-11-13T09:30:46.749Z,7.70
2018-11-13T09:33:15.017Z,7.70
2018-11-13T09:35:43.559Z,7.90
2018-11-13T09:38:12.070Z,7.90
2018-11-13T09:40:40.624Z,8.00
2018-11-13T09:43:09.187Z,8.00
2018-11-13T09:45:37.771Z,8.10
2018-11-13T09:48:06.361Z,8.20
2018-11-13T09:50:34.906Z,8.10
2018-11-13T09:53:03.493Z,8.20
2018-11-13T09:55:32.061Z,8.30
2018-11-13T09:58:00.584Z,8.50
2018-11-13T10:00:29.257Z,8.70
2018-11-13T10:02:59.416Z,8.90
2018-11-13T10:05:27.517Z,9.10
2018-11-13T10:07:56.427Z,9.10
2018-11-13T10:10:25.667Z,8.90
2018-11-13T10:12:54.156Z,9.10
2018-11-13T10:15:27.240Z,9.20
2018-11-13T10:17:55.882Z,9.20
2018-11-13T10:20:24.362Z,9.30
2018-11-13T10:22:54.120Z,9.40
2018-11-13T10:25:22.703Z,9.30
2018-11-13T10:27:51.360Z,9.40
2018-11-13T10:30:21.294Z,9.70
2018-11-13T10:32:50.813Z,10.00
2018-11-13T10:35:21.225Z,10.10
2018-11-13T10:37:49.727Z,10.40
2018-11-13T10:40:19.444Z,10.30
2018-11-13T10:42:47.892Z,10.30
2018-11-13T10:45:19.120Z,10.30
2018-11-13T10:47:47.689Z,10.50
2018-11-13T10:50:18.501Z,10.60
2018-11-13T10:52:47.384Z,10.80
2018-11-13T10:55:16.030Z,11.20
2018-11-13T10:57:44.785Z,11.50
2018-11-13T11:00:19.443Z,11.60
2018-11-13T11:02:53.631Z,11.50
2018-11-13T11:05:24.311Z,11.50
2018-11-13T11:07:52.965Z,11.50
2018-11-13T11:10:21.523Z,11.50
2018-11-13T11:12:50.173Z,11.60
2018-11-13T11:15:18.720Z,11.60
2018-11-13T11:17:47.262Z,11.60
2018-11-13T11:20:15.811Z,11.40
2018-11-13T11:22:44.409Z,11.50
2018-11-13T11:25:13.728Z,11.70
2018-11-13T11:27:42.306Z,11.70
2018-11-13T11:30:13.494Z,11.80
2018-11-13T11:32:42.311Z,11.80
2018-11-13T11:35:11.226Z,11.80
2018-11-13T11:37:40.610Z,11.80
2018-11-13T11:40:09.879Z,11.80
2018-11-13T11:42:38.813Z,11.80
2018-11-13T11:45:10.131Z,11.80
2018-11-13T11:47:38.942Z,11.80
2018-11-13T11:50:08.751Z,11.80
2018-11-13T11:52:37.317Z,11.90
2018-11-13T11:55:06.166Z,12.00
2018-11-13T11:57:35.117Z,12.00
2018-11-13T12:00:04.116Z,12.00
2018-11-13T12:02:32.723Z,12.20
2018-11-13T12:05:01.476Z,12.20
2018-11-13T12:07:30.148Z,12.20
2018-11-13T12:09:58.738Z,12.20
2018-11-13T12:12:27.306Z,12.30
2018-11-13T12:14:56.129Z,12.40
2018-11-13T12:17:24.906Z,12.40
2018-11-13T12:19:53.510Z,12.10
2018-11-13T12:22:22.076Z,12.20
2018-11-13T12:24:50.590Z,12.20
2018-11-13T12:27:19.160Z,12.00
2018-11-13T12:29:47.756Z,11.90
2018-11-13T12:32:16.330Z,11.90
2018-11-13T12:34:44.983Z,11.70
2018-11-13T12:37:16.400Z,12.10
2018-11-13T12:39:44.894Z,11.90
2018-11-13T12:42:13.645Z,11.90
2018-11-13T12:44:43.172Z,12.10
2018-11-13T12:47:11.828Z,11.90
2018-11-13T12:49:40.497Z,11.90
2018-11-13T12:52:14.513Z,11.90
2018-11-13T12:54:43.370Z,11.80
2018-11-13T12:57:12.012Z,11.70
2018-11-13T12:59:40.730Z,11.80
2018-11-13T13:04:38.515Z,11.80
2018-11-13T13:07:07.746Z,11.80
2018-11-13T13:09:37.537Z,11.90
2018-11-13T13:12:07.418Z,11.80
2018-11-13T13:14:36.288Z,11.80
2018-11-13T13:17:05.167Z,11.80
2018-11-13T13:19:33.992Z,11.80
2018-11-13T13:22:02.549Z,11.90
2018-11-13T13:24:31.278Z,12.00
2018-11-13T13:26:59.906Z,11.90
2018-11-13T13:29:28.568Z,11.90
2018-11-13T13:31:57.200Z,11.80
2018-11-13T13:34:26.088Z,12.00
2018-11-13T13:36:54.690Z,11.80
2018-11-13T13:39:23.434Z,11.80
2018-11-13T13:41:52.070Z,11.60
2018-11-13T13:44:20.652Z,11.60
2018-11-13T13:46:49.308Z,11.60
2018-11-13T13:49:17.775Z,11.70
2018-11-13T13:51:46.325Z,11.70
2018-11-13T13:54:14.939Z,11.70
2018-11-13T13:59:11.761Z,11.70
2018-11-13T14:01:40.317Z,11.70
2018-11-13T14:04:08.870Z,11.60
2018-11-13T14:06:37.465Z,11.70
2018-11-13T14:09:08.608Z,11.80
2018-11-13T14:11:37.147Z,11.60
2018-11-13T14:16:33.914Z,12.10
2018-11-13T14:19:02.512Z,11.80
2018-11-13T14:21:31.094Z,11.90
2018-11-13T14:23:59.683Z,11.80
2018-11-13T14:26:28.258Z,11.80
2018-11-13T14:28:56.932Z,12.00
2018-11-13T14:31:25.438Z,11.80
2018-11-13T14:33:54.005Z,11.90
2018-11-13T14:36:22.555Z,12.00
2018-11-13T14:38:51.102Z,11.90
2018-11-13T14:41:19.701Z,11.70
2018-11-13T14:43:48.477Z,11.80
2018-11-13T14:48:45.304Z,11.80
2018-11-13T14:51:13.882Z,11.90
2018-11-13T14:53:42.363Z,11.90
2018-11-13T14:56:10.893Z,12.10
2018-11-13T14:58:39.364Z,12.20
2018-11-13T15:01:07.862Z,12.00
2018-11-13T15:03:36.387Z,12.10
2018-11-13T15:06:04.895Z,12.20
2018-11-13T15:08:34.594Z,11.80
2018-11-13T15:11:01.864Z,11.90
2018-11-13T15:15:58.531Z,12.10
2018-11-13T15:18:27.084Z,12.00
2018-11-13T15:20:55.728Z,11.90
2018-11-13T15:23:24.249Z,12.00
2018-11-13T15:25:52.895Z,11.90
2018-11-13T15:28:21.555Z,12.30
2018-11-13T15:30:50.645Z,12.20
2018-11-13T15:33:20.625Z,12.00
2018-11-13T15:35:49.305Z,11.90
2018-11-13T15:38:18.174Z,11.50
2018-11-13T15:43:15.110Z,11.50
2018-11-13T15:45:43.655Z,11.80
2018-11-13T15:48:13.389Z,12.10
2018-11-13T15:50:42.099Z,12.10
2018-11-13T15:55:39.093Z,12.30
2018-11-13T16:00:37.912Z,11.80
2018-11-13T16:03:09.118Z,11.70
2018-11-13T16:05:40.288Z,11.60
2018-11-13T16:08:09.488Z,12.00
2018-11-13T16:10:38.032Z,11.80
2018-11-13T16:13:06.984Z,11.60
2018-11-13T16:15:35.560Z,11.70
2018-11-13T16:20:34.654Z,11.70
2018-11-13T16:25:31.564Z,11.70
2018-11-13T16:30:30.853Z,11.80
2018-11-13T16:33:00.188Z,11.60
2018-11-13T16:35:29.569Z,11.50
2018-11-13T16:37:59.449Z,11.30
2018-11-13T16:40:29.280Z,11.50
2018-11-13T16:42:57.942Z,11.60
2018-11-13T16:45:28.314Z,11.70
2018-11-13T16:47:57.908Z,11.40
2018-11-13T16:50:27.996Z,11.80
2018-11-13T16:52:56.946Z,11.60
2018-11-13T16:55:30.890Z,11.60
2018-11-13T16:58:01.749Z,11.70
2018-11-13T17:00:30.503Z,11.10
2018-11-13T17:02:59.098Z,11.20
2018-11-13T17:05:28.476Z,11.30
2018-11-13T17:10:27.874Z,11.30
2018-11-13T17:12:56.880Z,11.10
2018-11-13T17:15:26.691Z,10.90
2018-11-13T17:17:57.451Z,10.90
2018-11-13T17:20:26.121Z,10.80
2018-11-13T17:22:54.797Z,10.70
2018-11-13T17:25:25.115Z,10.60
2018-11-13T17:27:55.533Z,10.50
2018-11-13T17:32:54.826Z,10.40
2018-11-13T17:35:24.732Z,10.40
2018-11-13T17:37:54.134Z,10.00
2018-11-13T17:40:25.487Z,10.40
2018-11-13T17:42:56.133Z,10.30
2018-11-13T17:45:26.506Z,10.30
2018-11-13T17:47:56.002Z,10.20
2018-11-13T17:50:26.014Z,10.10
2018-11-13T17:52:54.778Z,9.90
2018-11-13T17:55:23.941Z,10.10
2018-11-13T17:57:54.159Z,10.20
2018-11-13T18:00:27.975Z,10.00
2018-11-13T18:05:26.514Z,9.80
2018-11-13T18:07:55.968Z,9.80
2018-11-13T18:10:25.645Z,10.10
2018-11-13T18:12:55.215Z,9.30
2018-11-13T18:15:25.995Z,9.70
2018-11-13T18:17:55.329Z,9.60
2018-11-13T18:20:26.725Z,10.00
2018-11-13T18:22:55.881Z,10.00
2018-11-13T18:25:26.222Z,10.00
2018-11-13T18:27:56.194Z,9.90
2018-11-13T18:30:29.873Z,9.90
2018-11-13T18:33:00.135Z,9.80
2018-11-13T18:35:30.307Z,9.50
2018-11-13T18:38:00.046Z,9.70
2018-11-13T18:40:29.857Z,9.40
2018-11-13T18:43:00.761Z,9.40
2018-11-13T18:45:32.390Z,9.40
2018-11-13T18:48:01.131Z,9.70
2018-11-13T18:50:32.102Z,9.50
2018-11-13T18:53:00.778Z,9.20
2018-11-13T18:55:29.522Z,9.90
2018-11-13T18:58:02.267Z,9.90
2018-11-13T19:00:34.940Z,10.20
2018-11-13T19:03:04.900Z,9.80
2018-11-13T19:05:35.503Z,9.90
2018-11-13T19:08:06.179Z,9.80
2018-11-13T19:10:39.127Z,10.00
2018-11-13T19:13:10.363Z,10.00
2018-11-13T19:15:42.437Z,10.00
2018-11-13T19:18:14.491Z,10.00
2018-11-13T19:20:46.366Z,10.30
2018-11-13T19:25:44.432Z,10.20
2018-11-13T19:28:17.345Z,10.40
2018-11-13T19:30:46.232Z,10.20
2018-11-13T19:33:17.682Z,10.20
2018-11-13T19:35:46.629Z,10.30
2018-11-13T19:40:48.898Z,10.20
2018-11-13T19:43:22.488Z,10.40
2018-11-13T19:45:53.609Z,11.10
2018-11-13T19:48:25.192Z,10.20
2018-11-13T19:53:29.595Z,10.10
2018-11-13T19:55:59.530Z,10.10
2018-11-13T19:58:32.054Z,10.20
2018-11-13T20:01:02.694Z,10.20
2018-11-13T20:03:32.591Z,10.00
2018-11-13T20:06:03.276Z,10.10
2018-11-13T20:08:32.049Z,9.80
2018-11-13T20:11:01.696Z,9.90
2018-11-13T20:13:30.510Z,9.90
2018-11-13T20:16:00.368Z,9.60
2018-11-13T20:21:17.432Z,9.60
2018-11-13T20:23:59.296Z,9.80
2018-11-13T20:26:39.748Z,9.60
2018-11-13T20:29:16.283Z,10.00
2018-11-13T20:32:01.381Z,9.30
2018-11-13T20:34:33.053Z,9.50
2018-11-13T20:42:45.342Z,9.30
2018-11-13T20:45:20.557Z,9.10
2018-11-13T20:50:39.660Z,9.00
2018-11-13T20:53:20.662Z,8.80
2018-11-13T20:55:51.483Z,8.60
2018-11-13T20:58:22.301Z,8.70
2018-11-13T21:00:50.998Z,8.60
2018-11-13T21:03:19.734Z,8.10
2018-11-13T21:05:49.246Z,8.30
2018-11-13T21:08:20.376Z,8.20
2018-11-13T21:10:50.047Z,8.20
2018-11-13T21:15:52.013Z,8.40
2018-11-13T21:18:20.741Z,8.40
2018-11-13T21:23:22.083Z,8.20
2018-11-13T21:25:51.611Z,7.40
2018-11-13T21:28:20.924Z,7.70
2018-11-13T21:30:49.585Z,7.90
2018-11-13T21:33:19.061Z,8.10
2018-11-13T21:35:48.064Z,7.80
2018-11-13T21:38:17.315Z,7.60
2018-11-13T21:43:14.329Z,7.20
2018-11-13T21:45:44.611Z,7.10
2018-11-13T21:48:13.855Z,7.00
2018-11-13T21:50:42.591Z,6.90
2018-11-13T21:53:11.250Z,6.90
2018-11-13T21:55:42.387Z,6.70
2018-11-13T21:58:11.130Z,6.40
2018-11-13T22:00:41.513Z,6.50
2018-11-13T22:03:10.299Z,6.60
2018-11-13T22:05:40.779Z,6.50
2018-11-13T22:08:10.017Z,6.30
2018-11-13T22:10:39.225Z,6.00
2018-11-13T22:13:07.967Z,6.10
2018-11-13T22:15:36.937Z,6.10
2018-11-13T22:18:05.871Z,6.30
2018-11-13T22:20:34.924Z,6.20
2018-11-13T22:23:03.581Z,6.20
2018-11-13T22:25:32.518Z,6.20
2018-11-13T22:28:01.229Z,5.90
2018-11-13T22:30:30.845Z,5.90
2018-11-13T22:35:27.790Z,5.90
2018-11-13T22:37:56.432Z,5.90
2018-11-13T22:40:26.597Z,5.30
2018-11-13T22:42:55.222Z,5.80
2018-11-13T22:45:25.155Z,5.70
2018-11-13T22:47:54.153Z,5.60
2018-11-13T22:50:24.173Z,5.50
2018-11-13T22:52:53.168Z,5.40
2018-11-13T22:55:22.067Z,5.30
2018-11-13T22:57:52.285Z,5.50
2018-11-13T23:00:42.429Z,5.10
2018-11-13T23:03:12.755Z,5.00
2018-11-13T23:05:41.777Z,5.10
2018-11-13T23:08:11.698Z,5.10
2018-11-13T23:10:40.298Z,5.10
2018-11-13T23:13:08.918Z,5.30
2018-11-13T23:15:37.478Z,5.10
2018-11-13T23:18:06.500Z,4.90
2018-11-13T23:20:35.103Z,4.90
2018-11-13T23:23:03.698Z,4.90
2018-11-13T23:25:32.271Z,4.70
2018-11-13T23:28:00.969Z,4.70
2018-11-13T23:30:30.152Z,4.70
2018-11-13T23:32:59.427Z,4.80
2018-11-13T23:35:28.002Z,4.50
2018-11-13T23:37:57.895Z,4.50
2018-11-13T23:40:27.507Z,4.80
2018-11-13T23:42:56.072Z,4.90
2018-11-13T23:45:25.804Z,4.60
2018-11-13T23:47:54.334Z,4.50
2018-11-13T23:50:22.860Z,4.40
2018-11-13T23:52:52.066Z,4.30
2018-11-13T23:55:20.597Z,4.30
2018-11-13T23:57:49.225Z,4.40
